createdAt,value
2022-07-25T00:01:42.948Z,20.30
2022-07-25T00:04:11.140Z,20.20
2022-07-25T00:06:40.286Z,20.20
2022-07-25T00:09:07.766Z,20.20
2022-07-25T00:11:34.585Z,20.30
2022-07-25T00:14:01.441Z,20.20
2022-07-25T00:16:28.253Z,20.20
2022-07-25T00:18:55.116Z,20.10
2022-07-25T00:21:21.917Z,20.20
2022-07-25T00:23:48.714Z,20.10
2022-07-25T00:26:15.513Z,20.10
2022-07-25T00:28:42.674Z,20.10
2022-07-25T00:31:09.563Z,20.00
2022-07-25T00:33:36.404Z,20.00
2022-07-25T00:36:03.229Z,20.00
2022-07-25T00:38:31.292Z,20.00
2022-07-25T00:40:58.123Z,20.10
2022-07-25T00:43:25.081Z,20.00
2022-07-25T00:45:51.869Z,20.00
2022-07-25T00:48:18.696Z,20.00
2022-07-25T00:50:45.508Z,20.00
2022-07-25T00:53:12.340Z,20.00
2022-07-25T00:55:39.295Z,20.00
2022-07-25T00:58:06.067Z,20.00
2022-07-25T01:00:32.968Z,20.00
2022-07-25T01:02:59.858Z,20.00
2022-07-25T01:05:26.850Z,19.90
2022-07-25T01:07:54.819Z,19.90
2022-07-25T01:10:21.628Z,20.00
2022-07-25T01:12:54.546Z,20.00
2022-07-25T01:15:23.335Z,19.90
2022-07-25T01:17:50.679Z,19.90
2022-07-25T01:20:18.000Z,19.80
2022-07-25T01:22:46.178Z,19.80
2022-07-25T01:25:14.352Z,19.80
2022-07-25T01:27:42.615Z,19.80
2022-07-25T01:30:11.618Z,19.80
2022-07-25T01:32:38.847Z,19.80
2022-07-25T01:35:06.807Z,19.70
2022-07-25T01:37:33.867Z,19.70
2022-07-25T01:40:00.742Z,19.70
2022-07-25T01:42:28.199Z,19.70
2022-07-25T01:44:55.735Z,19.60
2022-07-25T01:47:22.742Z,19.60
2022-07-25T01:49:49.619Z,19.60
2022-07-25T01:52:16.432Z,19.50
2022-07-25T01:54:43.502Z,19.50
2022-07-25T01:57:11.473Z,19.50
2022-07-25T01:59:41.201Z,19.50
2022-07-25T02:02:08.819Z,19.50
2022-07-25T02:04:37.139Z,19.50
2022-07-25T02:07:04.557Z,19.50
2022-07-25T02:09:33.334Z,19.50
2022-07-25T02:12:00.127Z,19.50
2022-07-25T02:14:26.922Z,19.40
2022-07-25T02:16:53.918Z,19.40
2022-07-25T02:19:20.832Z,19.50
2022-07-25T02:21:47.617Z,19.40
2022-07-25T02:24:14.399Z,19.40
2022-07-25T02:26:41.321Z,19.30
2022-07-25T02:29:08.134Z,19.30
2022-07-25T02:31:34.905Z,19.30
2022-07-25T02:34:02.266Z,19.30
2022-07-25T02:36:29.039Z,19.30
2022-07-25T02:38:55.800Z,19.20
2022-07-25T02:41:22.588Z,19.20
2022-07-25T02:43:49.405Z,19.20
2022-07-25T02:46:16.286Z,19.30
2022-07-25T02:48:43.098Z,19.30
2022-07-25T02:51:09.919Z,19.20
2022-07-25T02:53:55.914Z,19.30
2022-07-25T02:56:23.570Z,19.30
2022-07-25T02:58:50.473Z,19.30
2022-07-25T03:01:17.334Z,19.30
2022-07-25T03:03:44.181Z,19.20
2022-07-25T03:06:11.042Z,19.20
2022-07-25T03:08:37.914Z,19.20
2022-07-25T03:11:04.740Z,19.30
2022-07-25T03:13:32.112Z,19.20
2022-07-25T03:15:58.898Z,19.30
2022-07-25T03:18:25.691Z,19.40
2022-07-25T03:20:52.479Z,19.30
2022-07-25T03:23:19.281Z,19.30
2022-07-25T03:25:46.088Z,19.30
2022-07-25T03:28:12.913Z,19.40
2022-07-25T03:30:39.701Z,19.40
2022-07-25T03:33:06.481Z,19.30
2022-07-25T03:35:33.272Z,19.30
2022-07-25T03:38:02.060Z,19.30
2022-07-25T03:40:29.135Z,19.30
2022-07-25T03:42:55.920Z,19.30
2022-07-25T03:45:22.832Z,19.30
2022-07-25T03:47:49.667Z,19.30
2022-07-25T03:50:16.439Z,19.30
2022-07-25T03:52:43.250Z,19.30
2022-07-25T03:55:11.722Z,19.20
2022-07-25T03:57:39.298Z,19.30
2022-07-25T04:00:09.065Z,19.20
2022-07-25T04:02:37.139Z,19.30
2022-07-25T04:05:07.556Z,19.30
2022-07-25T04:07:34.758Z,19.30
2022-07-25T04:10:02.020Z,19.30
2022-07-25T04:12:28.805Z,19.30
2022-07-25T04:14:55.594Z,19.30
2022-07-25T04:17:22.488Z,19.30
2022-07-25T04:19:52.470Z,19.40
2022-07-25T04:22:19.514Z,19.40
2022-07-25T04:24:46.294Z,19.40
2022-07-25T04:27:13.071Z,19.40
2022-07-25T04:29:39.902Z,19.50
2022-07-25T04:32:07.272Z,19.50
2022-07-25T04:34:34.093Z,19.50
2022-07-25T04:37:00.871Z,19.60
2022-07-25T04:39:27.723Z,19.70
2022-07-25T04:41:54.537Z,19.70
2022-07-25T04:44:21.343Z,19.70
2022-07-25T04:46:48.139Z,19.70
2022-07-25T04:49:15.008Z,19.80
2022-07-25T04:51:41.911Z,19.80
2022-07-25T04:54:09.144Z,19.90
2022-07-25T04:56:36.220Z,19.90
2022-07-25T04:59:06.585Z,20.00
2022-07-25T05:01:34.462Z,20.10
2022-07-25T05:04:01.455Z,20.10
2022-07-25T05:06:28.284Z,20.30
2022-07-25T05:08:55.124Z,20.30
2022-07-25T05:11:21.920Z,20.40
2022-07-25T05:13:48.701Z,20.50
2022-07-25T05:16:15.534Z,20.60
2022-07-25T05:18:42.371Z,20.80
2022-07-25T05:21:13.074Z,20.80
2022-07-25T05:23:41.111Z,20.90
2022-07-25T05:26:08.029Z,21.00
2022-07-25T05:28:34.790Z,21.10
2022-07-25T05:31:01.887Z,21.20
2022-07-25T05:33:28.726Z,21.30
2022-07-25T05:35:55.612Z,21.40
2022-07-25T05:38:22.402Z,21.50
2022-07-25T05:40:49.223Z,21.60
2022-07-25T05:43:16.113Z,21.70
2022-07-25T05:45:42.919Z,21.80
2022-07-25T05:48:09.777Z,21.90
2022-07-25T05:50:39.942Z,22.00
2022-07-25T05:53:07.339Z,22.10
2022-07-25T05:55:34.118Z,22.30
2022-07-25T05:58:02.561Z,22.50
2022-07-25T06:00:29.842Z,22.50
2022-07-25T06:02:59.133Z,22.60
2022-07-25T06:05:26.243Z,22.70
2022-07-25T06:07:53.075Z,22.80
2022-07-25T06:10:20.355Z,22.80
2022-07-25T06:12:47.149Z,22.90
2022-07-25T06:15:22.643Z,23.10
2022-07-25T06:17:54.053Z,23.20
2022-07-25T06:20:20.979Z,23.30
2022-07-25T06:22:47.854Z,23.50
2022-07-25T06:25:14.836Z,23.60
2022-07-25T06:27:42.440Z,23.70
2022-07-25T06:30:19.301Z,23.90
2022-07-25T06:32:47.347Z,24.10
2022-07-25T06:35:14.223Z,24.30
2022-07-25T06:37:41.322Z,24.40
2022-07-25T06:40:08.864Z,24.60
2022-07-25T06:42:47.311Z,24.70
2022-07-25T06:45:15.663Z,24.70
2022-07-25T06:47:43.854Z,24.70
2022-07-25T06:50:12.800Z,24.50
2022-07-25T06:52:40.706Z,24.50
2022-07-25T06:55:09.691Z,24.60
2022-07-25T06:57:37.258Z,24.80
2022-07-25T07:00:07.657Z,24.90
2022-07-25T07:02:34.408Z,24.90
2022-07-25T07:05:01.163Z,24.90
2022-07-25T07:07:28.014Z,24.90
2022-07-25T07:09:54.897Z,24.90
2022-07-25T07:12:22.188Z,25.00
2022-07-25T07:14:48.953Z,25.20
2022-07-25T07:17:15.738Z,25.40
2022-07-25T07:19:42.525Z,25.60
2022-07-25T07:22:09.311Z,25.80
2022-07-25T07:24:42.829Z,26.00
2022-07-25T07:27:11.175Z,26.10
2022-07-25T07:29:37.968Z,26.20
2022-07-25T07:32:05.304Z,26.40
2022-07-25T07:34:32.207Z,26.70
2022-07-25T07:36:58.991Z,27.00
2022-07-25T07:39:25.876Z,27.10
2022-07-25T07:41:52.649Z,27.40
2022-07-25T07:44:19.504Z,27.40
2022-07-25T07:46:46.341Z,27.40
2022-07-25T07:49:13.254Z,27.30
2022-07-25T07:51:40.176Z,27.40
2022-07-25T07:54:07.026Z,27.50
2022-07-25T07:56:33.786Z,27.50
2022-07-25T07:59:00.537Z,27.50
2022-07-25T08:01:27.515Z,27.80
2022-07-25T08:03:54.349Z,28.00
2022-07-25T08:06:21.142Z,28.20
2022-07-25T08:08:47.946Z,28.20
2022-07-25T08:11:14.869Z,28.50
2022-07-25T08:13:41.728Z,28.70
2022-07-25T08:16:08.790Z,28.80
2022-07-25T08:18:35.671Z,29.00
2022-07-25T08:21:03.814Z,29.00
2022-07-25T08:23:30.616Z,29.10
2022-07-25T08:25:57.461Z,29.10
2022-07-25T08:28:24.273Z,29.20
2022-07-25T08:30:51.118Z,29.10
2022-07-25T08:33:19.051Z,29.20
2022-07-25T08:35:51.374Z,29.40
2022-07-25T08:38:18.849Z,29.60
2022-07-25T08:40:45.672Z,29.40
2022-07-25T08:43:14.423Z,29.50
2022-07-25T08:45:49.841Z,29.60
2022-07-25T08:48:24.872Z,29.70
2022-07-25T08:50:53.587Z,30.00
2022-07-25T08:53:36.904Z,29.80
2022-07-25T08:56:11.284Z,30.30
2022-07-25T08:58:40.992Z,30.20
2022-07-25T09:01:08.234Z,30.50
2022-07-25T09:03:35.498Z,30.30
2022-07-25T09:06:12.905Z,30.40
2022-07-25T09:08:54.516Z,30.30
2022-07-25T09:11:31.159Z,30.40
2022-07-25T09:13:59.722Z,30.90
2022-07-25T09:16:35.610Z,31.40
2022-07-25T09:19:16.374Z,32.00
2022-07-25T09:21:45.587Z,33.10
2022-07-25T09:24:18.319Z,34.60
2022-07-25T09:26:50.663Z,34.30
2022-07-25T09:29:26.106Z,35.40
2022-07-25T09:31:54.355Z,35.10
2022-07-25T09:34:40.038Z,35.30
2022-07-25T09:37:10.186Z,34.70
2022-07-25T09:39:46.926Z,35.00
2022-07-25T09:42:27.394Z,34.60
2022-07-25T09:45:31.570Z,34.80
2022-07-25T09:48:04.493Z,35.00
2022-07-25T09:50:33.049Z,33.70
2022-07-25T09:53:01.596Z,33.60
2022-07-25T09:55:29.839Z,33.60
2022-07-25T09:57:57.040Z,33.40
2022-07-25T10:00:40.983Z,33.90
2022-07-25T10:03:16.549Z,35.40
2022-07-25T10:05:57.998Z,34.00
2022-07-25T10:08:25.756Z,32.90
2022-07-25T10:10:52.587Z,33.60
2022-07-25T10:13:30.520Z,34.00
2022-07-25T10:15:57.623Z,34.10
2022-07-25T10:18:26.690Z,33.40
2022-07-25T10:20:56.625Z,33.90
2022-07-25T10:23:28.249Z,34.40
2022-07-25T10:26:10.259Z,33.90
2022-07-25T10:28:47.774Z,34.90
2022-07-25T10:31:25.690Z,33.80
2022-07-25T10:33:55.159Z,32.50
2022-07-25T10:36:22.860Z,33.00
2022-07-25T10:38:52.826Z,33.20
2022-07-25T10:41:24.322Z,33.30
2022-07-25T10:43:51.208Z,32.90
2022-07-25T10:46:21.559Z,33.60
2022-07-25T10:49:06.032Z,33.70
2022-07-25T10:51:41.592Z,34.00
2022-07-25T10:54:16.619Z,33.90
2022-07-25T10:56:57.599Z,33.90
2022-07-25T10:59:30.202Z,34.20
2022-07-25T11:01:57.774Z,35.00
2022-07-25T11:04:24.935Z,35.10
2022-07-25T11:06:51.832Z,35.20
2022-07-25T11:09:27.198Z,34.60
2022-07-25T11:11:57.401Z,34.70
2022-07-25T11:14:25.583Z,34.30
2022-07-25T11:16:54.520Z,34.80
2022-07-25T11:19:29.493Z,34.60
2022-07-25T11:22:01.530Z,34.40
2022-07-25T11:24:54.586Z,34.40
2022-07-25T11:27:27.289Z,34.50
2022-07-25T11:30:05.998Z,35.00
2022-07-25T11:33:00.448Z,34.10
2022-07-25T11:35:30.800Z,33.70
2022-07-25T11:38:00.860Z,34.00
2022-07-25T11:40:28.018Z,33.80
2022-07-25T11:42:57.029Z,33.20
2022-07-25T11:45:26.198Z,33.40
2022-07-25T11:48:08.201Z,34.10
2022-07-25T11:50:40.274Z,34.20
2022-07-25T11:53:09.941Z,34.30
2022-07-25T11:55:39.325Z,33.80
2022-07-25T11:58:06.860Z,34.10
2022-07-25T12:00:41.034Z,33.60
2022-07-25T12:03:19.907Z,33.40
2022-07-25T12:05:47.733Z,33.20
2022-07-25T12:08:19.859Z,33.20
2022-07-25T12:10:48.063Z,33.00
2022-07-25T12:13:28.810Z,33.60
2022-07-25T12:15:59.609Z,33.30
2022-07-25T12:18:27.145Z,33.20
2022-07-25T12:20:53.945Z,33.50
2022-07-25T12:23:20.985Z,33.40
2022-07-25T12:25:47.958Z,33.50
2022-07-25T12:28:15.209Z,33.50
2022-07-25T12:30:43.806Z,33.40
2022-07-25T12:33:10.883Z,33.30
2022-07-25T12:35:37.803Z,33.50
2022-07-25T12:38:05.041Z,33.40
2022-07-25T12:40:32.180Z,33.50
2022-07-25T12:42:59.177Z,33.70
2022-07-25T12:45:26.329Z,33.50
2022-07-25T12:47:53.218Z,33.50
2022-07-25T12:50:20.129Z,33.60
2022-07-25T12:52:47.684Z,33.60
2022-07-25T12:55:18.859Z,33.70
2022-07-25T12:57:46.121Z,32.70
2022-07-25T13:00:16.124Z,32.60
2022-07-25T13:02:43.387Z,32.80
2022-07-25T13:05:10.381Z,33.10
2022-07-25T13:07:37.846Z,32.90
2022-07-25T13:10:06.042Z,32.70
2022-07-25T13:12:32.861Z,32.70
2022-07-25T13:14:59.610Z,32.80
2022-07-25T13:17:27.751Z,33.00
2022-07-25T13:19:55.613Z,33.00
2022-07-25T13:22:22.447Z,32.90
2022-07-25T13:24:49.253Z,33.20
2022-07-25T13:27:18.881Z,33.30
2022-07-25T13:29:45.831Z,33.40
2022-07-25T13:32:13.471Z,33.10
2022-07-25T13:34:40.298Z,33.10
2022-07-25T13:37:07.065Z,33.20
2022-07-25T13:39:33.978Z,33.00
2022-07-25T13:42:00.780Z,33.40
2022-07-25T13:44:27.556Z,33.50
2022-07-25T13:46:54.324Z,33.80
2022-07-25T13:49:21.250Z,34.10
2022-07-25T13:51:48.076Z,34.50
2022-07-25T13:54:14.887Z,34.90
2022-07-25T13:56:41.799Z,34.80
2022-07-25T13:59:09.361Z,35.10
2022-07-25T14:01:36.741Z,35.20
2022-07-25T14:04:03.626Z,34.40
2022-07-25T14:06:30.450Z,34.30
2022-07-25T14:08:57.409Z,34.00
2022-07-25T14:11:30.070Z,34.00
2022-07-25T14:13:57.952Z,33.80
2022-07-25T14:16:24.880Z,33.50
2022-07-25T14:18:51.686Z,33.50
2022-07-25T14:21:18.560Z,33.20
2022-07-25T14:23:45.337Z,33.00
2022-07-25T14:26:13.185Z,32.70
2022-07-25T14:28:40.031Z,32.80
2022-07-25T14:31:06.942Z,32.60
2022-07-25T14:33:33.747Z,32.40
2022-07-25T14:36:00.579Z,31.60
2022-07-25T14:38:27.381Z,31.30
2022-07-25T14:40:54.179Z,30.60
2022-07-25T14:43:21.006Z,30.60
2022-07-25T14:45:47.835Z,29.40
2022-07-25T14:48:14.647Z,29.00
2022-07-25T14:50:41.449Z,28.40
2022-07-25T14:53:08.390Z,28.00
2022-07-25T14:55:36.758Z,27.80
2022-07-25T14:58:03.602Z,27.80
2022-07-25T15:00:30.937Z,27.60
2022-07-25T15:02:57.756Z,27.70
2022-07-25T15:05:24.537Z,27.80
2022-07-25T15:07:51.442Z,27.60
2022-07-25T15:10:18.274Z,27.80
2022-07-25T15:12:45.039Z,27.80
2022-07-25T15:15:11.910Z,27.60
2022-07-25T15:17:38.809Z,27.90
2022-07-25T15:20:06.287Z,28.30
2022-07-25T15:22:33.177Z,29.00
2022-07-25T15:25:35.229Z,29.60
2022-07-25T15:27:46.817Z,30.00
2022-07-25T15:30:13.768Z,31.10
2022-07-25T15:32:40.626Z,32.00
2022-07-25T15:35:08.199Z,33.10
2022-07-25T15:37:35.374Z,33.60
2022-07-25T15:40:02.547Z,34.30
2022-07-25T15:42:29.741Z,34.30
2022-07-25T15:45:22.092Z,33.00
2022-07-25T15:47:46.234Z,33.70
2022-07-25T15:50:20.488Z,33.30
2022-07-25T15:52:47.580Z,33.40
2022-07-25T15:55:14.603Z,32.40
2022-07-25T15:57:41.417Z,31.80
2022-07-25T16:00:09.165Z,31.80
2022-07-25T16:02:36.155Z,31.50
2022-07-25T16:05:04.409Z,31.10
2022-07-25T16:07:31.241Z,31.20
2022-07-25T16:09:58.932Z,30.60
2022-07-25T16:12:28.616Z,30.50
2022-07-25T16:14:56.259Z,30.40
2022-07-25T16:17:23.921Z,30.50
2022-07-25T16:19:50.722Z,30.20
2022-07-25T16:22:17.502Z,30.30
2022-07-25T16:24:44.297Z,29.90
2022-07-25T16:27:11.165Z,29.70
2022-07-25T16:29:38.578Z,29.70
2022-07-25T16:32:06.122Z,29.00
2022-07-25T16:34:33.768Z,28.30
2022-07-25T16:37:01.909Z,28.00
2022-07-25T16:39:29.044Z,27.80
2022-07-25T16:41:56.689Z,27.30
2022-07-25T16:44:23.557Z,27.10
2022-07-25T16:46:50.948Z,27.10
2022-07-25T16:49:17.911Z,26.80
2022-07-25T16:51:45.502Z,26.60
2022-07-25T16:54:12.398Z,26.40
2022-07-25T16:56:39.398Z,26.10
2022-07-25T16:59:07.508Z,25.70
2022-07-25T17:01:34.794Z,25.30
2022-07-25T17:04:01.714Z,25.10
2022-07-25T17:06:28.883Z,24.90
2022-07-25T17:08:55.828Z,24.40
2022-07-25T17:11:22.679Z,24.00
2022-07-25T17:13:49.457Z,23.80
2022-07-25T17:16:16.537Z,23.60
2022-07-25T17:18:43.449Z,23.40
2022-07-25T17:21:10.316Z,23.10
2022-07-25T17:23:37.191Z,23.10
2022-07-25T17:26:05.052Z,22.90
2022-07-25T17:28:31.909Z,22.70
2022-07-25T17:30:58.736Z,22.50
2022-07-25T17:33:25.599Z,22.50
2022-07-25T17:35:52.487Z,22.60
2022-07-25T17:38:25.456Z,22.30
2022-07-25T17:40:53.259Z,22.20
2022-07-25T17:43:20.024Z,22.20
2022-07-25T17:45:46.982Z,22.10
2022-07-25T17:48:13.814Z,22.00
2022-07-25T17:50:40.605Z,21.80
2022-07-25T17:53:07.511Z,21.70
2022-07-25T17:55:38.757Z,21.50
2022-07-25T17:58:06.215Z,21.40
2022-07-25T18:00:33.039Z,21.40
2022-07-25T18:03:00.346Z,21.50
2022-07-25T18:05:27.130Z,21.40
2022-07-25T18:07:54.083Z,21.30
2022-07-25T18:10:21.535Z,21.30
2022-07-25T18:12:49.252Z,21.20
2022-07-25T18:15:16.607Z,21.10
2022-07-25T18:17:44.861Z,21.10
2022-07-25T18:20:12.913Z,21.00
2022-07-25T18:22:39.778Z,21.00
2022-07-25T18:25:07.946Z,20.80
2022-07-25T18:27:34.841Z,20.90
2022-07-25T18:30:02.810Z,20.80
2022-07-25T18:32:29.566Z,20.80
2022-07-25T18:34:56.366Z,20.70
2022-07-25T18:37:23.208Z,20.70
2022-07-25T18:39:49.982Z,20.70
2022-07-25T18:42:17.155Z,20.80
2022-07-25T18:44:43.946Z,20.70
2022-07-25T18:47:10.837Z,20.60
2022-07-25T18:49:37.758Z,20.50
2022-07-25T18:52:05.219Z,20.50
2022-07-25T18:54:32.001Z,20.50
2022-07-25T18:56:58.832Z,20.30
2022-07-25T18:59:25.840Z,20.30
2022-07-25T19:01:52.791Z,20.30
2022-07-25T19:04:19.750Z,20.20
2022-07-25T19:06:46.671Z,20.20
2022-07-25T19:09:13.490Z,20.20
2022-07-25T19:11:42.326Z,20.20
2022-07-25T19:14:09.535Z,20.30
2022-07-25T19:16:36.989Z,20.30
2022-07-25T19:19:03.819Z,20.30
2022-07-25T19:21:30.603Z,20.30
2022-07-25T19:23:57.396Z,20.30
2022-07-25T19:26:24.227Z,20.20
2022-07-25T19:28:51.324Z,20.20
2022-07-25T19:31:18.216Z,20.10
2022-07-25T19:33:45.115Z,20.10
2022-07-25T19:36:12.955Z,20.00
2022-07-25T19:38:39.779Z,20.10
2022-07-25T19:41:07.849Z,20.10
2022-07-25T19:43:34.782Z,20.10
2022-07-25T19:46:01.607Z,20.10
2022-07-25T19:48:28.447Z,20.10
2022-07-25T19:50:55.318Z,20.10
2022-07-25T19:53:25.443Z,20.00
2022-07-25T19:55:55.484Z,20.00
2022-07-25T19:58:22.299Z,20.00
2022-07-25T20:00:49.117Z,19.90
2022-07-25T20:03:15.946Z,19.80
2022-07-25T20:05:49.852Z,19.90
2022-07-25T20:08:16.628Z,19.90
2022-07-25T20:10:43.404Z,19.90
2022-07-25T20:13:10.206Z,19.90
2022-07-25T20:15:37.015Z,19.90
2022-07-25T20:18:06.723Z,19.80
2022-07-25T20:20:33.670Z,19.80
2022-07-25T20:23:00.556Z,19.80
2022-07-25T20:25:27.428Z,19.80
2022-07-25T20:27:54.265Z,19.70
2022-07-25T20:30:21.776Z,19.60
2022-07-25T20:32:48.866Z,19.60
2022-07-25T20:35:15.699Z,19.50
2022-07-25T20:37:42.516Z,19.40
2022-07-25T20:40:10.257Z,19.40
2022-07-25T20:42:37.494Z,19.40
2022-07-25T20:45:06.080Z,19.40
2022-07-25T20:47:32.909Z,19.20
2022-07-25T20:49:59.985Z,19.30
2022-07-25T20:52:26.855Z,19.30
2022-07-25T20:54:54.006Z,19.30
2022-07-25T20:57:20.784Z,19.20
2022-07-25T20:59:47.581Z,19.20
2022-07-25T21:02:14.376Z,19.20
2022-07-25T21:04:41.191Z,19.20
2022-07-25T21:07:07.982Z,19.10
2022-07-25T21:09:35.003Z,19.00
2022-07-25T21:12:02.291Z,18.90
2022-07-25T21:14:29.051Z,18.90
2022-07-25T21:16:55.877Z,18.80
2022-07-25T21:19:22.763Z,18.80
2022-07-25T21:21:49.588Z,18.80
2022-07-25T21:24:16.756Z,18.70
2022-07-25T21:26:43.521Z,18.70
2022-07-25T21:29:10.853Z,18.70
2022-07-25T21:31:38.413Z,18.70
2022-07-25T21:34:05.250Z,18.70
2022-07-25T21:36:32.080Z,18.70
2022-07-25T21:38:58.827Z,18.70
2022-07-25T21:41:25.625Z,18.70
2022-07-25T21:43:52.463Z,18.80
2022-07-25T21:46:19.430Z,18.80
2022-07-25T21:48:46.353Z,18.80
2022-07-25T21:51:14.101Z,18.70
2022-07-25T21:53:47.430Z,18.70
2022-07-25T21:56:15.265Z,18.70
2022-07-25T21:58:42.237Z,18.70
2022-07-25T22:01:09.204Z,18.70
2022-07-25T22:03:36.132Z,18.70
2022-07-25T22:06:03.094Z,18.60
2022-07-25T22:08:29.856Z,18.60
2022-07-25T22:10:56.693Z,18.50
2022-07-25T22:13:25.424Z,18.50
2022-07-25T22:15:52.207Z,18.50
2022-07-25T22:18:19.356Z,18.50
2022-07-25T22:20:46.126Z,18.40
2022-07-25T22:23:12.898Z,18.40
2022-07-25T22:25:39.693Z,18.30
2022-07-25T22:28:06.485Z,18.30
2022-07-25T22:30:37.233Z,18.40
2022-07-25T22:33:04.046Z,18.30
2022-07-25T22:35:30.909Z,18.30
2022-07-25T22:37:57.692Z,18.20
2022-07-25T22:40:24.467Z,18.20
2022-07-25T22:42:51.250Z,18.20
2022-07-25T22:45:18.063Z,18.20
2022-07-25T22:47:44.876Z,18.10
2022-07-25T22:50:11.699Z,18.00
2022-07-25T22:52:38.529Z,17.90
2022-07-25T22:55:05.761Z,17.90
2022-07-25T22:57:37.114Z,17.80
2022-07-25T23:00:10.163Z,17.70
2022-07-25T23:02:37.870Z,17.70
2022-07-25T23:05:06.381Z,17.60
2022-07-25T23:07:33.700Z,17.60
2022-07-25T23:10:01.413Z,17.60
2022-07-25T23:12:28.183Z,17.50
2022-07-25T23:14:54.945Z,17.50
2022-07-25T23:17:21.767Z,17.40
2022-07-25T23:19:53.820Z,17.50
2022-07-25T23:22:21.942Z,17.50
2022-07-25T23:24:49.094Z,17.40
2022-07-25T23:27:16.195Z,17.40
2022-07-25T23:29:43.325Z,17.30
2022-07-25T23:32:10.311Z,17.30
2022-07-25T23:34:37.157Z,17.30
2022-07-25T23:37:04.088Z,17.30
2022-07-25T23:39:30.966Z,17.20
2022-07-25T23:41:58.507Z,17.20
2022-07-25T23:44:25.377Z,17.20
2022-07-25T23:46:54.734Z,17.20
2022-07-25T23:49:23.644Z,17.30
2022-07-25T23:51:50.500Z,17.20
2022-07-25T23:54:17.352Z,17.30
2022-07-25T23:56:44.121Z,17.20
2022-07-25T23:59:11.350Z,17.20
